sensor_id;sensor_type;location;lat;lon;timestamp;pressure;altitude;pressure_sealevel;temperature
32827;BMP280;51059;42.058;27.986;2023-07-31T00:00:40;100651.63;;;19.83
32827;BMP280;51059;42.058;27.986;2023-07-31T00:03:06;100657.59;;;19.88
32827;BMP280;51059;42.058;27.986;2023-07-31T00:05:32;100648.31;;;19.88
32827;BMP280;51059;42.058;27.986;2023-07-31T00:07:58;100655.94;;;19.92
32827;BMP280;51059;42.058;27.986;2023-07-31T00:10:24;100650.91;;;19.95
32827;BMP280;51059;42.058;27.986;2023-07-31T00:12:50;100648.34;;;19.95
32827;BMP280;51059;42.058;27.986;2023-07-31T00:15:16;100650.03;;;19.93
32827;BMP280;51059;42.058;27.986;2023-07-31T00:17:41;100644.97;;;19.93
32827;BMP280;51059;42.058;27.986;2023-07-31T00:20:08;100646.66;;;19.93
32827;BMP280;51059;42.058;27.986;2023-07-31T00:22:34;100645.00;;;19.95
32827;BMP280;51059;42.058;27.986;2023-07-31T00:24:59;100641.59;;;19.91
32827;BMP280;51059;42.058;27.986;2023-07-31T00:27:25;100644.94;;;19.90
32827;BMP280;51059;42.058;27.986;2023-07-31T00:29:51;100641.56;;;19.90
32827;BMP280;51059;42.058;27.986;2023-07-31T00:32:17;100643.34;;;19.98
32827;BMP280;51059;42.058;27.986;2023-07-31T00:34:43;100633.19;;;19.98
32827;BMP280;51059;42.058;27.986;2023-07-31T00:37:10;100630.63;;;19.95
32827;BMP280;51059;42.058;27.986;2023-07-31T00:39:36;100626.38;;;19.90
32827;BMP280;51059;42.058;27.986;2023-07-31T00:42:02;100625.59;;;19.98
32827;BMP280;51059;42.058;27.986;2023-07-31T00:44:28;100625.59;;;20.00
32827;BMP280;51059;42.058;27.986;2023-07-31T00:46:55;100629.88;;;20.03
32827;BMP280;51059;42.058;27.986;2023-07-31T00:49:22;100615.50;;;20.04
32827;BMP280;51059;42.058;27.986;2023-07-31T00:51:48;100614.66;;;20.06
32827;BMP280;51059;42.058;27.986;2023-07-31T00:54:15;100624.78;;;20.05
32827;BMP280;51059;42.058;27.986;2023-07-31T00:56:41;100619.72;;;20.05
32827;BMP280;51059;42.058;27.986;2023-07-31T00:59:08;100612.13;;;20.02
32827;BMP280;51059;42.058;27.986;2023-07-31T01:01:34;100615.47;;;19.98
32827;BMP280;51059;42.058;27.986;2023-07-31T01:04:00;100612.88;;;19.92
32827;BMP280;51059;42.058;27.986;2023-07-31T01:06:48;100623.75;;;19.77
32827;BMP280;51059;42.058;27.986;2023-07-31T01:09:39;100623.72;;;19.74
32827;BMP280;51059;42.058;27.986;2023-07-31T01:12:09;100626.34;;;19.86
32827;BMP280;51059;42.058;27.986;2023-07-31T01:14:37;100625.53;;;19.89
32827;BMP280;51059;42.058;27.986;2023-07-31T01:17:04;100619.63;;;19.90
32827;BMP280;51059;42.058;27.986;2023-07-31T01:19:30;100627.22;;;19.88
32827;BMP280;51059;42.058;27.986;2023-07-31T01:22:22;100621.28;;;19.84
32827;BMP280;51059;42.058;27.986;2023-07-31T01:25:24;100617.88;;;19.84
32827;BMP280;51059;42.058;27.986;2023-07-31T01:28:10;100624.63;;;19.86
32827;BMP280;51059;42.058;27.986;2023-07-31T01:30:43;100621.22;;;19.80
32827;BMP280;51059;42.058;27.986;2023-07-31T01:33:10;100628.84;;;19.83
32827;BMP280;51059;42.058;27.986;2023-07-31T01:35:37;100621.22;;;19.81
32827;BMP280;51059;42.058;27.986;2023-07-31T01:38:04;100626.31;;;19.81
32827;BMP280;51059;42.058;27.986;2023-07-31T01:40:31;100624.63;;;19.83
32827;BMP280;51059;42.058;27.986;2023-07-31T01:42:57;100627.22;;;19.88
32827;BMP280;51059;42.058;27.986;2023-07-31T01:45:23;100629.69;;;19.82
32827;BMP280;51059;42.058;27.986;2023-07-31T01:47:49;100632.22;;;19.82
32827;BMP280;51059;42.058;27.986;2023-07-31T01:50:15;100629.69;;;19.79
32827;BMP280;51059;42.058;27.986;2023-07-31T01:52:41;100628.84;;;19.83
32827;BMP280;51059;42.058;27.986;2023-07-31T01:55:07;100627.16;;;19.85
32827;BMP280;51059;42.058;27.986;2023-07-31T01:57:33;100635.63;;;19.84
32827;BMP280;51059;42.058;27.986;2023-07-31T01:59:59;100632.22;;;19.79
32827;BMP280;51059;42.058;27.986;2023-07-31T02:02:25;100633.91;;;19.80
32827;BMP280;51059;42.058;27.986;2023-07-31T02:04:51;100636.44;;;19.81
32827;BMP280;51059;42.058;27.986;2023-07-31T02:07:18;100633.88;;;19.77
32827;BMP280;51059;42.058;27.986;2023-07-31T02:09:44;100640.63;;;19.78
32827;BMP280;51059;42.058;27.986;2023-07-31T02:12:10;100642.34;;;19.79
32827;BMP280;51059;42.058;27.986;2023-07-31T02:14:37;100638.03;;;19.73
32827;BMP280;51059;42.058;27.986;2023-07-31T02:17:03;100637.22;;;19.72
32827;BMP280;51059;42.058;27.986;2023-07-31T02:19:29;100641.44;;;19.73
32827;BMP280;51059;42.058;27.986;2023-07-31T02:21:55;100647.31;;;19.70
32827;BMP280;51059;42.058;27.986;2023-07-31T02:24:23;100654.09;;;19.71
32827;BMP280;51059;42.058;27.986;2023-07-31T02:26:50;100654.09;;;19.73
32827;BMP280;51059;42.058;27.986;2023-07-31T02:29:16;100650.69;;;19.69
32827;BMP280;51059;42.058;27.986;2023-07-31T02:31:42;100654.91;;;19.69
32827;BMP280;51059;42.058;27.986;2023-07-31T02:34:08;100660.78;;;19.66
32827;BMP280;51059;42.058;27.986;2023-07-31T02:36:34;100663.28;;;19.65
32827;BMP280;51059;42.058;27.986;2023-07-31T02:39:00;100676.81;;;19.65
32827;BMP280;51059;42.058;27.986;2023-07-31T02:41:26;100674.22;;;19.59
32827;BMP280;51059;42.058;27.986;2023-07-31T02:43:52;100675.13;;;19.64
32827;BMP280;51059;42.058;27.986;2023-07-31T02:46:19;100672.63;;;19.70
32827;BMP280;51059;42.058;27.986;2023-07-31T02:48:45;100671.81;;;19.73
32827;BMP280;51059;42.058;27.986;2023-07-31T02:51:11;100678.56;;;19.73
32827;BMP280;51059;42.058;27.986;2023-07-31T02:53:37;100682.81;;;19.76
32827;BMP280;51059;42.058;27.986;2023-07-31T02:56:03;100679.47;;;19.80
32827;BMP280;51059;42.058;27.986;2023-07-31T02:58:30;100677.00;;;19.86
32827;BMP280;51059;42.058;27.986;2023-07-31T03:00:58;100682.94;;;19.90
32827;BMP280;51059;42.058;27.986;2023-07-31T03:03:27;100686.41;;;20.01
32827;BMP280;51059;42.058;27.986;2023-07-31T03:05:53;100687.25;;;19.99
32827;BMP280;51059;42.058;27.986;2023-07-31T03:08:19;100685.59;;;20.05
32827;BMP280;51059;42.058;27.986;2023-07-31T03:10:45;100683.13;;;20.11
32827;BMP280;51059;42.058;27.986;2023-07-31T03:13:10;100685.75;;;20.21
32827;BMP280;51059;42.058;27.986;2023-07-31T03:15:36;100680.78;;;20.31
32827;BMP280;51059;42.058;27.986;2023-07-31T03:18:02;100690.06;;;20.32
32827;BMP280;51059;42.058;27.986;2023-07-31T03:20:28;100685.09;;;20.44
32827;BMP280;51059;42.058;27.986;2023-07-31T03:22:54;100681.78;;;20.62
32827;BMP280;51059;42.058;27.986;2023-07-31T03:25:20;100677.66;;;20.75
32827;BMP280;51059;42.058;27.986;2023-07-31T03:27:46;100676.03;;;20.82
32827;BMP280;51059;42.058;27.986;2023-07-31T03:30:12;100674.34;;;20.88
32827;BMP280;51059;42.058;27.986;2023-07-31T03:32:37;100666.06;;;24.19
32827;BMP280;51059;42.058;27.986;2023-07-31T03:35:04;100651.97;;;26.43
32827;BMP280;51059;42.058;27.986;2023-07-31T03:37:31;100657.13;;;27.62
32827;BMP280;51059;42.058;27.986;2023-07-31T03:39:57;100640.06;;;28.90
32827;BMP280;51059;42.058;27.986;2023-07-31T03:42:23;100651.00;;;29.81
32827;BMP280;51059;42.058;27.986;2023-07-31T03:44:49;100646.03;;;30.74
32827;BMP280;51059;42.058;27.986;2023-07-31T03:47:15;100646.06;;;31.82
32827;BMP280;51059;42.058;27.986;2023-07-31T03:49:40;100654.00;;;31.12
32827;BMP280;51059;42.058;27.986;2023-07-31T03:52:07;100653.72;;;32.83
32827;BMP280;51059;42.058;27.986;2023-07-31T03:54:33;100651.97;;;33.21
32827;BMP280;51059;42.058;27.986;2023-07-31T03:56:59;100650.03;;;33.96
32827;BMP280;51059;42.058;27.986;2023-07-31T03:59:25;100659.53;;;34.29
32827;BMP280;51059;42.058;27.986;2023-07-31T04:01:51;100670.25;;;35.04
32827;BMP280;51059;42.058;27.986;2023-07-31T04:04:17;100665.47;;;35.58
32827;BMP280;51059;42.058;27.986;2023-07-31T04:06:43;100667.72;;;36.38
32827;BMP280;51059;42.058;27.986;2023-07-31T04:09:09;100669.00;;;36.73
32827;BMP280;51059;42.058;27.986;2023-07-31T04:11:35;100660.94;;;37.31
32827;BMP280;51059;42.058;27.986;2023-07-31T04:14:01;100669.63;;;38.22
32827;BMP280;51059;42.058;27.986;2023-07-31T04:16:27;100664.19;;;38.39
32827;BMP280;51059;42.058;27.986;2023-07-31T04:18:53;100667.13;;;39.19
32827;BMP280;51059;42.058;27.986;2023-07-31T04:21:19;100672.59;;;39.63
32827;BMP280;51059;42.058;27.986;2023-07-31T04:23:45;100674.50;;;39.84
32827;BMP280;51059;42.058;27.986;2023-07-31T04:26:11;100680.19;;;40.46
32827;BMP280;51059;42.058;27.986;2023-07-31T04:28:37;100673.84;;;41.03
32827;BMP280;51059;42.058;27.986;2023-07-31T04:31:03;100672.44;;;41.63
32827;BMP280;51059;42.058;27.986;2023-07-31T04:33:29;100666.38;;;42.04
32827;BMP280;51059;42.058;27.986;2023-07-31T04:35:55;100672.13;;;42.48
32827;BMP280;51059;42.058;27.986;2023-07-31T04:38:22;100677.38;;;42.88
32827;BMP280;51059;42.058;27.986;2023-07-31T04:40:48;100683.41;;;43.57
32827;BMP280;51059;42.058;27.986;2023-07-31T04:43:14;100679.34;;;43.91
32827;BMP280;51059;42.058;27.986;2023-07-31T04:45:44;100680.75;;;44.04
32827;BMP280;51059;42.058;27.986;2023-07-31T04:48:12;100684.47;;;44.66
32827;BMP280;51059;42.058;27.986;2023-07-31T04:50:38;100691.41;;;44.85
32827;BMP280;51059;42.058;27.986;2023-07-31T04:53:04;100691.53;;;45.28
32827;BMP280;51059;42.058;27.986;2023-07-31T04:55:30;100698.94;;;44.53
32827;BMP280;51059;42.058;27.986;2023-07-31T04:57:58;100700.03;;;45.23
32827;BMP280;51059;42.058;27.986;2023-07-31T05:00:25;100692.16;;;45.13
32827;BMP280;51059;42.058;27.986;2023-07-31T05:02:51;100680.59;;;45.76
32827;BMP280;51059;42.058;27.986;2023-07-31T05:05:17;100673.72;;;45.40
32827;BMP280;51059;42.058;27.986;2023-07-31T05:07:43;100671.72;;;44.62
32827;BMP280;51059;42.058;27.986;2023-07-31T05:10:09;100667.59;;;42.30
32827;BMP280;51059;42.058;27.986;2023-07-31T05:12:35;100653.53;;;41.79
32827;BMP280;51059;42.058;27.986;2023-07-31T05:15:01;100658.78;;;40.52
32827;BMP280;51059;42.058;27.986;2023-07-31T05:17:26;100655.16;;;41.07
32827;BMP280;51059;42.058;27.986;2023-07-31T05:19:52;100655.88;;;40.88
32827;BMP280;51059;42.058;27.986;2023-07-31T05:22:22;100652.63;;;40.30
32827;BMP280;51059;42.058;27.986;2023-07-31T05:24:49;100645.41;;;41.93
32827;BMP280;51059;42.058;27.986;2023-07-31T05:27:14;100656.09;;;41.07
32827;BMP280;51059;42.058;27.986;2023-07-31T05:29:44;100654.66;;;42.78
32827;BMP280;51059;42.058;27.986;2023-07-31T05:32:10;100660.09;;;42.15
32827;BMP280;51059;42.058;27.986;2023-07-31T05:34:36;100668.03;;;42.05
32827;BMP280;51059;42.058;27.986;2023-07-31T05:37:02;100667.34;;;42.73
32827;BMP280;51059;42.058;27.986;2023-07-31T05:39:28;100669.91;;;42.64
32827;BMP280;51059;42.058;27.986;2023-07-31T05:41:54;100668.38;;;41.59
32827;BMP280;51059;42.058;27.986;2023-07-31T05:44:21;100677.69;;;41.42
32827;BMP280;51059;42.058;27.986;2023-07-31T05:46:47;100676.28;;;42.20
32827;BMP280;51059;42.058;27.986;2023-07-31T05:49:13;100672.00;;;42.30
32827;BMP280;51059;42.058;27.986;2023-07-31T05:51:39;100678.25;;;42.08
32827;BMP280;51059;42.058;27.986;2023-07-31T05:54:05;100675.41;;;41.69
32827;BMP280;51059;42.058;27.986;2023-07-31T05:56:31;100673.41;;;41.30
32827;BMP280;51059;42.058;27.986;2023-07-31T05:58:57;100685.47;;;40.11
32827;BMP280;51059;42.058;27.986;2023-07-31T06:01:23;100673.59;;;40.18
32827;BMP280;51059;42.058;27.986;2023-07-31T06:03:49;100686.16;;;37.84
32827;BMP280;51059;42.058;27.986;2023-07-31T06:06:15;100677.88;;;38.29
32827;BMP280;51059;42.058;27.986;2023-07-31T06:08:41;100686.19;;;38.09
32827;BMP280;51059;42.058;27.986;2023-07-31T06:11:07;100691.00;;;36.96
32827;BMP280;51059;42.058;27.986;2023-07-31T06:13:35;100696.28;;;36.66
32827;BMP280;51059;42.058;27.986;2023-07-31T06:16:02;100693.75;;;36.80
32827;BMP280;51059;42.058;27.986;2023-07-31T06:18:34;100691.53;;;36.45
32827;BMP280;51059;42.058;27.986;2023-07-31T06:21:00;100688.03;;;36.60
32827;BMP280;51059;42.058;27.986;2023-07-31T06:23:25;100687.09;;;36.61
32827;BMP280;51059;42.058;27.986;2023-07-31T06:25:51;100695.47;;;35.94
32827;BMP280;51059;42.058;27.986;2023-07-31T06:28:17;100680.41;;;36.14
32827;BMP280;51059;42.058;27.986;2023-07-31T06:30:43;100703.34;;;35.16
32827;BMP280;51059;42.058;27.986;2023-07-31T06:33:10;100694.94;;;35.72
32827;BMP280;51059;42.058;27.986;2023-07-31T06:35:36;100695.47;;;35.79
32827;BMP280;51059;42.058;27.986;2023-07-31T06:38:02;100690.69;;;35.87
32827;BMP280;51059;42.058;27.986;2023-07-31T06:40:28;100699.88;;;35.32
32827;BMP280;51059;42.058;27.986;2023-07-31T06:42:54;100696.31;;;35.49
32827;BMP280;51059;42.058;27.986;2023-07-31T06:45:20;100703.91;;;35.52
32827;BMP280;51059;42.058;27.986;2023-07-31T06:47:48;100706.31;;;35.09
32827;BMP280;51059;42.058;27.986;2023-07-31T06:50:14;100700.75;;;35.62
32827;BMP280;51059;42.058;27.986;2023-07-31T06:52:40;100697.88;;;35.82
32827;BMP280;51059;42.058;27.986;2023-07-31T06:55:20;100695.91;;;35.25
32827;BMP280;51059;42.058;27.986;2023-07-31T06:57:48;100699.47;;;35.08
32827;BMP280;51059;42.058;27.986;2023-07-31T07:00:15;100699.41;;;35.71
32827;BMP280;51059;42.058;27.986;2023-07-31T07:02:43;100691.91;;;35.35
32827;BMP280;51059;42.058;27.986;2023-07-31T07:05:09;100701.25;;;35.69
32827;BMP280;51059;42.058;27.986;2023-07-31T07:07:37;100714.94;;;34.61
32827;BMP280;51059;42.058;27.986;2023-07-31T07:10:03;100707.47;;;35.35
32827;BMP280;51059;42.058;27.986;2023-07-31T07:12:31;100706.38;;;35.55
32827;BMP280;51059;42.058;27.986;2023-07-31T07:14:58;100699.16;;;35.75
32827;BMP280;51059;42.058;27.986;2023-07-31T07:17:25;100704.31;;;34.99
32827;BMP280;51059;42.058;27.986;2023-07-31T07:19:51;100705.38;;;34.78
32827;BMP280;51059;42.058;27.986;2023-07-31T07:22:17;100708.91;;;35.09
32827;BMP280;51059;42.058;27.986;2023-07-31T07:24:43;100708.88;;;34.44
32827;BMP280;51059;42.058;27.986;2023-07-31T07:27:10;100713.91;;;34.47
32827;BMP280;51059;42.058;27.986;2023-07-31T07:29:37;100712.78;;;34.53
32827;BMP280;51059;42.058;27.986;2023-07-31T07:32:04;100707.06;;;34.79
32827;BMP280;51059;42.058;27.986;2023-07-31T07:34:31;100716.84;;;33.71
32827;BMP280;51059;42.058;27.986;2023-07-31T07:36:58;100719.75;;;33.66
32827;BMP280;51059;42.058;27.986;2023-07-31T07:39:24;100724.75;;;33.15
32827;BMP280;51059;42.058;27.986;2023-07-31T07:41:51;100725.97;;;32.87
32827;BMP280;51059;42.058;27.986;2023-07-31T07:44:18;100732.63;;;33.85
32827;BMP280;51059;42.058;27.986;2023-07-31T07:46:45;100736.81;;;34.05
32827;BMP280;51059;42.058;27.986;2023-07-31T07:49:11;100732.13;;;34.29
32827;BMP280;51059;42.058;27.986;2023-07-31T07:51:37;100730.13;;;34.52
32827;BMP280;51059;42.058;27.986;2023-07-31T07:54:03;100738.59;;;34.72
32827;BMP280;51059;42.058;27.986;2023-07-31T07:56:28;100738.91;;;34.32
32827;BMP280;51059;42.058;27.986;2023-07-31T07:58:55;100734.78;;;34.62
32827;BMP280;51059;42.058;27.986;2023-07-31T08:01:20;100738.59;;;34.72
32827;BMP280;51059;42.058;27.986;2023-07-31T08:03:47;100741.41;;;34.51
32827;BMP280;51059;42.058;27.986;2023-07-31T08:06:14;100739.31;;;34.41
32827;BMP280;51059;42.058;27.986;2023-07-31T08:08:40;100741.88;;;34.75
32827;BMP280;51059;42.058;27.986;2023-07-31T08:11:07;100739.78;;;34.65
32827;BMP280;51059;42.058;27.986;2023-07-31T08:13:33;100741.94;;;34.74
32827;BMP280;51059;42.058;27.986;2023-07-31T08:15:59;100752.25;;;34.25
32827;BMP280;51059;42.058;27.986;2023-07-31T08:18:25;100738.13;;;34.81
32827;BMP280;51059;42.058;27.986;2023-07-31T08:20:51;100738.25;;;35.11
32827;BMP280;51059;42.058;27.986;2023-07-31T08:23:16;100744.53;;;34.90
32827;BMP280;51059;42.058;27.986;2023-07-31T08:25:45;100737.19;;;34.98
32827;BMP280;51059;42.058;27.986;2023-07-31T08:28:12;100745.13;;;34.79
32827;BMP280;51059;42.058;27.986;2023-07-31T08:30:37;100747.69;;;34.46
32827;BMP280;51059;42.058;27.986;2023-07-31T08:33:03;100742.97;;;34.37
32827;BMP280;51059;42.058;27.986;2023-07-31T08:35:29;100742.50;;;34.46
32827;BMP280;51059;42.058;27.986;2023-07-31T08:37:55;100750.16;;;34.82
32827;BMP280;51059;42.058;27.986;2023-07-31T08:40:21;100751.16;;;34.96
32827;BMP280;51059;42.058;27.986;2023-07-31T08:42:49;100759.19;;;34.24
32827;BMP280;51059;42.058;27.986;2023-07-31T08:45:19;100752.84;;;34.29
32827;BMP280;51059;42.058;27.986;2023-07-31T08:47:47;100752.22;;;34.08
32827;BMP280;51059;42.058;27.986;2023-07-31T08:50:15;100757.06;;;34.32
32827;BMP280;51059;42.058;27.986;2023-07-31T08:52:42;100746.50;;;34.85
32827;BMP280;51059;42.058;27.986;2023-07-31T08:55:08;100746.88;;;34.78
32827;BMP280;51059;42.058;27.986;2023-07-31T08:57:36;100744.38;;;34.93
32827;BMP280;51059;42.058;27.986;2023-07-31T09:00:06;100748.13;;;34.71
32827;BMP280;51059;42.058;27.986;2023-07-31T09:05:11;100750.16;;;34.49
32827;BMP280;51059;42.058;27.986;2023-07-31T09:07:38;100754.66;;;34.11
32827;BMP280;51059;42.058;27.986;2023-07-31T09:10:05;100765.94;;;33.92
32827;BMP280;51059;42.058;27.986;2023-07-31T09:12:31;100767.50;;;33.78
32827;BMP280;51059;42.058;27.986;2023-07-31T09:14:58;100760.00;;;33.72
32827;BMP280;51059;42.058;27.986;2023-07-31T09:17:34;100767.28;;;33.65
32827;BMP280;51059;42.058;27.986;2023-07-31T09:20:28;100775.13;;;32.87
32827;BMP280;51059;42.058;27.986;2023-07-31T09:22:55;100772.41;;;33.29
32827;BMP280;51059;42.058;27.986;2023-07-31T09:25:25;100778.34;;;33.31
32827;BMP280;51059;42.058;27.986;2023-07-31T09:28:00;100771.72;;;33.05
32827;BMP280;51059;42.058;27.986;2023-07-31T09:30:26;100776.94;;;32.85
32827;BMP280;51059;42.058;27.986;2023-07-31T09:33:03;100775.75;;;32.92
32827;BMP280;51059;42.058;27.986;2023-07-31T09:35:33;100777.97;;;32.82
32827;BMP280;51059;42.058;27.986;2023-07-31T09:38:04;100778.88;;;33.19
32827;BMP280;51059;42.058;27.986;2023-07-31T09:40:35;100782.69;;;32.52
32827;BMP280;51059;42.058;27.986;2023-07-31T09:43:04;100768.78;;;32.75
32827;BMP280;51059;42.058;27.986;2023-07-31T09:45:35;100770.97;;;32.83
32827;BMP280;51059;42.058;27.986;2023-07-31T09:48:03;100774.72;;;32.96
32827;BMP280;51059;42.058;27.986;2023-07-31T09:50:32;100773.03;;;32.76
32827;BMP280;51059;42.058;27.986;2023-07-31T09:52:58;100780.34;;;33.25
32827;BMP280;51059;42.058;27.986;2023-07-31T09:55:24;100771.66;;;33.06
32827;BMP280;51059;42.058;27.986;2023-07-31T09:57:53;100774.34;;;32.66
32827;BMP280;51059;42.058;27.986;2023-07-31T10:00:28;100771.56;;;32.08
32827;BMP280;51059;42.058;27.986;2023-07-31T10:02:58;100780.47;;;32.01
32827;BMP280;51059;42.058;27.986;2023-07-31T10:05:31;100771.50;;;32.30
32827;BMP280;51059;42.058;27.986;2023-07-31T10:07:58;100773.00;;;32.15
32827;BMP280;51059;42.058;27.986;2023-07-31T10:10:25;100764.41;;;32.16
32827;BMP280;51059;42.058;27.986;2023-07-31T10:12:52;100763.44;;;31.96
32827;BMP280;51059;42.058;27.986;2023-07-31T10:15:18;100762.84;;;31.90
32827;BMP280;51059;42.058;27.986;2023-07-31T10:17:48;100763.06;;;31.62
32827;BMP280;51059;42.058;27.986;2023-07-31T10:20:15;100777.97;;;30.08
32827;BMP280;51059;42.058;27.986;2023-07-31T10:22:44;100761.66;;;31.08
32827;BMP280;51059;42.058;27.986;2023-07-31T10:25:15;100773.69;;;29.52
32827;BMP280;51059;42.058;27.986;2023-07-31T10:27:43;100774.44;;;29.26
32827;BMP280;51059;42.058;27.986;2023-07-31T10:30:12;100756.53;;;30.07
32827;BMP280;51059;42.058;27.986;2023-07-31T10:32:40;100763.41;;;29.52
32827;BMP280;51059;42.058;27.986;2023-07-31T10:35:08;100753.50;;;29.39
32827;BMP280;51059;42.058;27.986;2023-07-31T10:37:39;100754.13;;;29.47
32827;BMP280;51059;42.058;27.986;2023-07-31T10:40:10;100750.75;;;29.45
32827;BMP280;51059;42.058;27.986;2023-07-31T10:42:46;100756.19;;;29.04
32827;BMP280;51059;42.058;27.986;2023-07-31T10:45:17;100761.88;;;29.45
32827;BMP280;51059;42.058;27.986;2023-07-31T10:47:49;100751.69;;;29.70
32827;BMP280;51059;42.058;27.986;2023-07-31T10:50:24;100760.19;;;29.15
32827;BMP280;51059;42.058;27.986;2023-07-31T10:52:53;100757.34;;;28.94
32827;BMP280;51059;42.058;27.986;2023-07-31T10:55:31;100752.09;;;28.66
32827;BMP280;51059;42.058;27.986;2023-07-31T10:58:05;100747.66;;;29.02
32827;BMP280;51059;42.058;27.986;2023-07-31T11:00:32;100752.63;;;29.10
32827;BMP280;51059;42.058;27.986;2023-07-31T11:05:42;100747.66;;;28.72
32827;BMP280;51059;42.058;27.986;2023-07-31T11:10:48;100741.66;;;29.34
32827;BMP280;51059;42.058;27.986;2023-07-31T11:13:14;100751.06;;;28.73
32827;BMP280;51059;42.058;27.986;2023-07-31T11:15:41;100753.44;;;29.11
32827;BMP280;51059;42.058;27.986;2023-07-31T11:18:06;100748.13;;;29.17
32827;BMP280;51059;42.058;27.986;2023-07-31T11:20:36;100747.53;;;28.77
32827;BMP280;51059;42.058;27.986;2023-07-31T11:23:03;100739.22;;;28.67
32827;BMP280;51059;42.058;27.986;2023-07-31T11:25:30;100730.81;;;28.92
32827;BMP280;51059;42.058;27.986;2023-07-31T11:28:02;100738.69;;;28.86
32827;BMP280;51059;42.058;27.986;2023-07-31T11:30:28;100726.97;;;28.77
32827;BMP280;51059;42.058;27.986;2023-07-31T11:32:55;100723.78;;;28.67
32827;BMP280;51059;42.058;27.986;2023-07-31T11:35:21;100717.94;;;28.94
32827;BMP280;51059;42.058;27.986;2023-07-31T11:37:48;100725.31;;;28.42
32827;BMP280;51059;42.058;27.986;2023-07-31T11:40:14;100712.75;;;28.64
32827;BMP280;51059;42.058;27.986;2023-07-31T11:42:41;100714.88;;;28.80
32827;BMP280;51059;42.058;27.986;2023-07-31T11:45:08;100713.69;;;28.93
32827;BMP280;51059;42.058;27.986;2023-07-31T11:47:37;100717.22;;;28.89
32827;BMP280;51059;42.058;27.986;2023-07-31T11:50:05;100700.50;;;29.34
32827;BMP280;51059;42.058;27.986;2023-07-31T11:52:40;100718.13;;;29.17
32827;BMP280;51059;42.058;27.986;2023-07-31T11:55:08;100706.44;;;29.06
32827;BMP280;51059;42.058;27.986;2023-07-31T11:57:39;100706.34;;;28.46
32827;BMP280;51059;42.058;27.986;2023-07-31T12:00:08;100699.22;;;28.89
32827;BMP280;51059;42.058;27.986;2023-07-31T12:02:37;100707.56;;;28.96
32827;BMP280;51059;42.058;27.986;2023-07-31T12:05:06;100695.47;;;28.70
32827;BMP280;51059;42.058;27.986;2023-07-31T12:07:47;100695.16;;;28.80
32827;BMP280;51059;42.058;27.986;2023-07-31T12:15:44;100696.22;;;28.41
32827;BMP280;51059;42.058;27.986;2023-07-31T12:18:14;100698.50;;;28.84
32827;BMP280;51059;42.058;27.986;2023-07-31T12:23:07;100699.56;;;29.07
32827;BMP280;51059;42.058;27.986;2023-07-31T12:25:33;100697.78;;;29.08
32827;BMP280;51059;42.058;27.986;2023-07-31T12:28:08;100695.41;;;28.72
32827;BMP280;51059;42.058;27.986;2023-07-31T12:30:38;100688.75;;;28.65
32827;BMP280;51059;42.058;27.986;2023-07-31T12:33:15;100699.97;;;28.29
32827;BMP280;51059;42.058;27.986;2023-07-31T12:35:44;100695.06;;;28.52
32827;BMP280;51059;42.058;27.986;2023-07-31T12:38:11;100706.97;;;28.22
32827;BMP280;51059;42.058;27.986;2023-07-31T12:40:39;100695.13;;;28.50
32827;BMP280;51059;42.058;27.986;2023-07-31T12:43:06;100693.00;;;28.34
32827;BMP280;51059;42.058;27.986;2023-07-31T12:45:33;100689.00;;;28.56
32827;BMP280;51059;42.058;27.986;2023-07-31T12:47:59;100690.31;;;28.70
32827;BMP280;51059;42.058;27.986;2023-07-31T12:50:26;100701.81;;;28.87
32827;BMP280;51059;42.058;27.986;2023-07-31T12:52:53;100701.41;;;29.02
32827;BMP280;51059;42.058;27.986;2023-07-31T12:55:20;100711.72;;;28.37
32827;BMP280;51059;42.058;27.986;2023-07-31T12:57:47;100701.00;;;28.56
32827;BMP280;51059;42.058;27.986;2023-07-31T13:00:14;100700.81;;;28.63
32827;BMP280;51059;42.058;27.986;2023-07-31T13:02:40;100702.97;;;28.13
32827;BMP280;51059;42.058;27.986;2023-07-31T13:05:07;100709.53;;;28.22
32827;BMP280;51059;42.058;27.986;2023-07-31T13:07:34;100702.22;;;28.73
32827;BMP280;51059;42.058;27.986;2023-07-31T13:10:00;100703.41;;;28.28
32827;BMP280;51059;42.058;27.986;2023-07-31T13:12:26;100694.16;;;28.53
32827;BMP280;51059;42.058;27.986;2023-07-31T13:14:52;100702.66;;;28.24
32827;BMP280;51059;42.058;27.986;2023-07-31T13:17:18;100688.19;;;28.21
32827;BMP280;51059;42.058;27.986;2023-07-31T13:19:44;100695.59;;;27.98
32827;BMP280;51059;42.058;27.986;2023-07-31T13:22:10;100693.88;;;27.99
32827;BMP280;51059;42.058;27.986;2023-07-31T13:24:36;100687.75;;;28.04
32827;BMP280;51059;42.058;27.986;2023-07-31T13:27:03;100690.06;;;27.79
32827;BMP280;51059;42.058;27.986;2023-07-31T13:29:29;100686.81;;;28.08
32827;BMP280;51059;42.058;27.986;2023-07-31T13:31:56;100689.91;;;28.22
32827;BMP280;51059;42.058;27.986;2023-07-31T13:34:21;100680.75;;;28.43
32827;BMP280;51059;42.058;27.986;2023-07-31T13:36:47;100675.00;;;28.66
32827;BMP280;51059;42.058;27.986;2023-07-31T13:39:13;100673.63;;;28.53
32827;BMP280;51059;42.058;27.986;2023-07-31T13:41:40;100678.63;;;27.92
32827;BMP280;51059;42.058;27.986;2023-07-31T13:44:05;100679.69;;;27.83
32827;BMP280;51059;42.058;27.986;2023-07-31T13:46:31;100680.00;;;28.07
32827;BMP280;51059;42.058;27.986;2023-07-31T13:48:58;100674.97;;;28.35
32827;BMP280;51059;42.058;27.986;2023-07-31T13:51:25;100682.81;;;28.63
32827;BMP280;51059;42.058;27.986;2023-07-31T13:53:53;100678.88;;;28.18
32827;BMP280;51059;42.058;27.986;2023-07-31T13:56:19;100676.34;;;28.48
32827;BMP280;51059;42.058;27.986;2023-07-31T13:58:45;100678.44;;;28.66
32827;BMP280;51059;42.058;27.986;2023-07-31T14:01:11;100680.31;;;28.60